Time;durP1;ratioP1;P1;durP2;ratioP2;P2;SDS_P1;SDS_P2;PMS_P1;PMS_P2;Temp;Humidity;BMP_temperature;BMP_pressure;BME280_temperature;BME280_humidity;BME280_pressure;Samples;Min_cycle;Max_cycle;Signal;HPM_P1;HPM_P2
2023/03/05 00:02:12;;;;;;;71.63;49.30;;;;;;;;;;4416745;32;318841;-80
2023/03/05 00:04:39;;;;;;;80.27;50.20;;;;;;;;;;4407858;32;319037;-80
2023/03/05 00:07:08;;;;;;;72.17;48.33;;;;;;;;;;4415652;32;351475;-82
2023/03/05 00:09:36;;;;;;;74.10;49.67;;;;;;;;;;4405410;32;350706;-80
2023/03/05 00:12:03;;;;;;;79.00;53.17;;;;;;;;;;4417360;32;318936;-81
2023/03/05 00:14:32;;;;;;;84.90;54.83;;;;;;;;;;4405907;32;318884;-81
2023/03/05 00:16:59;;;;;;;89.27;54.60;;;;;;;;;;4416648;32;341136;-80
2023/03/05 00:19:27;;;;;;;72.10;49.43;;;;;;;;;;4407455;32;318685;-80
2023/03/05 00:21:54;;;;;;;80.77;49.50;;;;;;;;;;4416989;32;330629;-80
2023/03/05 00:24:22;;;;;;;71.23;47.50;;;;;;;;;;4414788;32;318908;-80
2023/03/05 00:26:49;;;;;;;72.03;47.00;;;;;;;;;;4404099;32;418173;-81
2023/03/05 00:29:20;;;;;;;64.90;43.30;;;;;;;;;;4402622;32;318729;-81
2023/03/05 00:31:49;;;;;;;73.77;45.57;;;;;;;;;;4405547;32;330183;-81
2023/03/05 00:34:18;;;;;;;68.90;43.17;;;;;;;;;;4415854;32;318613;-81
2023/03/05 00:36:48;;;;;;;69.50;44.03;;;;;;;;;;4404878;32;319358;-80
2023/03/05 00:39:16;;;;;;;88.93;59.00;;;;;;;;;;4416905;32;319036;-81
2023/03/05 00:41:43;;;;;;;90.30;56.97;;;;;;;;;;4406822;32;319145;-81
2023/03/05 00:44:11;;;;;;;82.90;54.40;;;;;;;;;;4416333;32;318614;-81
2023/03/05 00:46:39;;;;;;;77.97;50.47;;;;;;;;;;4405874;32;319058;-81
2023/03/05 00:49:08;;;;;;;76.90;53.13;;;;;;;;;;4417333;32;318890;-81
2023/03/05 00:51:35;;;;;;;81.07;55.63;;;;;;;;;;4406550;32;319204;-82
2023/03/05 00:54:03;;;;;;;89.37;55.23;;;;;;;;;;4415904;32;318731;-81
2023/03/05 00:56:30;;;;;;;84.87;54.23;;;;;;;;;;4405362;32;319688;-81
2023/03/05 00:58:58;;;;;;;79.53;53.33;;;;;;;;;;4416940;32;318873;-81
2023/03/05 01:01:27;;;;;;;69.73;48.47;;;;;;;;;;4405888;32;325009;-81
2023/03/05 01:03:56;;;;;;;70.00;47.23;;;;;;;;;;4415840;32;319084;-81
2023/03/05 01:06:25;;;;;;;75.50;49.30;;;;;;;;;;4406928;32;319268;-81
2023/03/05 01:08:52;;;;;;;71.13;45.90;;;;;;;;;;4416892;32;319075;-81
2023/03/05 01:11:20;;;;;;;68.57;44.63;;;;;;;;;;4414570;32;319486;-81
2023/03/05 01:13:47;;;;;;;59.20;42.20;;;;;;;;;;4406229;32;318728;-81
2023/03/05 01:16:15;;;;;;;66.20;40.83;;;;;;;;;;4415363;32;319428;-81
2023/03/05 01:18:42;;;;;;;64.90;40.53;;;;;;;;;;4406467;32;318527;-82
2023/03/05 01:21:10;;;;;;;68.10;42.30;;;;;;;;;;4416455;32;319090;-81
2023/03/05 01:23:39;;;;;;;70.23;44.20;;;;;;;;;;4406726;32;318665;-81
2023/03/05 01:26:07;;;;;;;56.00;40.13;;;;;;;;;;4415794;32;319455;-81
2023/03/05 01:28:35;;;;;;;59.47;40.30;;;;;;;;;;4407299;32;319123;-81
2023/03/05 01:31:02;;;;;;;60.30;38.87;;;;;;;;;;4432539;32;318784;-79
2023/03/05 01:33:30;;;;;;;56.27;38.13;;;;;;;;;;4420845;32;318741;-81
2023/03/05 01:35:57;;;;;;;63.17;42.87;;;;;;;;;;4425155;32;319508;-78
2023/03/05 01:38:25;;;;;;;60.50;39.27;;;;;;;;;;4409214;32;356444;-82
2023/03/05 01:40:54;;;;;;;51.23;34.77;;;;;;;;;;4417606;32;319476;-81
2023/03/05 01:43:28;;;;;;;56.40;36.00;;;;;;;;;;4415926;32;319027;-82
2023/03/05 01:46:33;;;;;;;45.13;29.90;;;;;;;;;;4400691;32;421415;-81
2023/03/05 01:49:18;;;;;;;35.80;26.00;;;;;;;;;;4402486;32;419456;-81
2023/03/05 01:51:52;;;;;;;34.13;23.80;;;;;;;;;;4404398;32;319325;-82
2023/03/05 01:54:22;;;;;;;28.43;20.73;;;;;;;;;;4415311;32;318988;-81
2023/03/05 01:56:54;;;;;;;31.70;19.70;;;;;;;;;;4401458;32;419563;-81
2023/03/05 01:59:23;;;;;;;28.93;18.50;;;;;;;;;;4418876;32;318662;-80
2023/03/05 02:01:54;;;;;;;27.37;19.50;;;;;;;;;;4383323;32;418469;-81
2023/03/05 02:04:27;;;;;;;34.47;21.43;;;;;;;;;;4417846;32;318776;-81
2023/03/05 02:06:54;;;;;;;28.07;19.63;;;;;;;;;;4406003;32;418208;-80
2023/03/05 02:09:22;;;;;;;33.97;22.30;;;;;;;;;;4418263;32;318969;-80
2023/03/05 02:11:52;;;;;;;61.53;37.63;;;;;;;;;;4403731;32;417966;-81
2023/03/05 02:14:19;;;;;;;75.53;50.30;;;;;;;;;;4419171;32;318974;-80
2023/03/05 02:16:47;;;;;;;71.77;50.30;;;;;;;;;;4409379;32;319540;-81
2023/03/05 02:19:14;;;;;;;70.70;45.60;;;;;;;;;;4421402;32;319047;-81
2023/03/05 02:21:45;;;;;;;74.93;44.07;;;;;;;;;;4410305;32;319008;-81
2023/03/05 02:24:14;;;;;;;65.03;41.63;;;;;;;;;;4419828;32;318853;-81
2023/03/05 02:26:43;;;;;;;59.33;39.73;;;;;;;;;;4416426;32;318954;-80
2023/03/05 02:29:18;;;;;;;60.77;41.07;;;;;;;;;;4407944;32;318687;-80
2023/03/05 02:31:49;;;;;;;59.97;40.23;;;;;;;;;;4387598;32;318601;-80
2023/03/05 02:34:17;;;;;;;54.57;38.13;;;;;;;;;;4396381;32;319507;-82
2023/03/05 02:36:49;;;;;;;57.63;38.43;;;;;;;;;;4424393;32;319351;-82
2023/03/05 02:39:16;;;;;;;60.27;38.30;;;;;;;;;;4424362;32;319242;-80
2023/03/05 02:41:44;;;;;;;55.53;38.10;;;;;;;;;;4408826;32;318932;-82
2023/03/05 02:44:11;;;;;;;57.73;38.37;;;;;;;;;;4419239;32;319231;-82
2023/03/05 02:46:39;;;;;;;61.40;41.30;;;;;;;;;;4406778;32;319256;-81
2023/03/05 02:49:06;;;;;;;63.13;41.73;;;;;;;;;;4418027;32;320003;-81
2023/03/05 02:51:34;;;;;;;70.97;43.07;;;;;;;;;;4406975;32;318959;-81
2023/03/05 02:54:02;;;;;;;62.13;41.53;;;;;;;;;;4417207;32;319542;-81
2023/03/05 02:56:30;;;;;;;63.43;42.03;;;;;;;;;;4407498;32;318762;-82
2023/03/05 02:58:57;;;;;;;72.27;49.00;;;;;;;;;;4418585;32;319467;-81
2023/03/05 03:01:26;;;;;;;73.30;47.77;;;;;;;;;;4405392;32;318857;-81
2023/03/05 03:03:54;;;;;;;78.67;51.20;;;;;;;;;;4417818;32;319238;-81
2023/03/05 03:06:21;;;;;;;77.97;51.57;;;;;;;;;;4418143;32;318881;-81
2023/03/05 03:08:49;;;;;;;90.60;53.07;;;;;;;;;;4404491;32;418516;-83
2023/03/05 03:11:18;;;;;;;66.80;46.13;;;;;;;;;;4417891;32;318950;-80
2023/03/05 03:13:45;;;;;;;71.63;44.67;;;;;;;;;;4408004;32;319200;-81
2023/03/05 03:16:14;;;;;;;80.57;48.63;;;;;;;;;;4418452;32;318855;-80
2023/03/05 03:18:42;;;;;;;70.20;46.70;;;;;;;;;;4407870;32;319373;-81
2023/03/05 03:21:18;;;;;;;71.73;46.63;;;;;;;;;;4416182;32;318989;-80
2023/03/05 03:23:45;;;;;;;77.57;48.53;;;;;;;;;;4408200;32;319433;-81
2023/03/05 03:26:12;;;;;;;71.37;46.77;;;;;;;;;;4418068;32;318886;-80
2023/03/05 03:28:41;;;;;;;76.53;49.60;;;;;;;;;;4406812;32;319007;-81
2023/03/05 03:31:09;;;;;;;69.30;47.67;;;;;;;;;;4415813;32;319360;-81
2023/03/05 03:33:36;;;;;;;65.07;45.77;;;;;;;;;;4407282;32;319279;-81
2023/03/05 03:36:05;;;;;;;65.23;44.80;;;;;;;;;;4416486;32;319054;-81
2023/03/05 03:38:32;;;;;;;62.37;44.70;;;;;;;;;;4407635;32;319557;-81
2023/03/05 03:41:00;;;;;;;58.63;41.40;;;;;;;;;;4415678;32;318984;-81
2023/03/05 03:43:27;;;;;;;58.23;40.97;;;;;;;;;;4407613;32;319164;-81
2023/03/05 03:45:56;;;;;;;65.43;39.43;;;;;;;;;;4418102;32;318970;-81
2023/03/05 03:48:23;;;;;;;64.90;44.47;;;;;;;;;;4407685;32;319130;-82
2023/03/05 03:50:51;;;;;;;67.67;42.60;;;;;;;;;;4417481;32;318953;-81
2023/03/05 03:53:18;;;;;;;66.17;44.43;;;;;;;;;;4417265;32;319067;-81
2023/03/05 03:55:46;;;;;;;65.13;43.73;;;;;;;;;;4407020;32;318812;-81
2023/03/05 03:58:14;;;;;;;72.90;46.33;;;;;;;;;;4417678;32;319234;-82
2023/03/05 04:00:42;;;;;;;74.23;50.90;;;;;;;;;;4407357;32;319135;-82
2023/03/05 04:03:11;;;;;;;78.80;52.67;;;;;;;;;;4417926;32;319269;-81
2023/03/05 04:05:38;;;;;;;83.93;53.60;;;;;;;;;;4404805;32;319083;-81
2023/03/05 04:08:10;;;;;;;84.43;53.43;;;;;;;;;;4417524;32;319289;-81
2023/03/05 04:10:38;;;;;;;88.27;55.07;;;;;;;;;;4405959;32;346594;-81
2023/03/05 04:13:06;;;;;;;83.83;54.33;;;;;;;;;;4417838;32;319277;-81
2023/03/05 04:15:33;;;;;;;88.47;54.23;;;;;;;;;;4407101;32;318960;-81
2023/03/05 04:18:01;;;;;;;80.97;53.03;;;;;;;;;;4416167;32;319690;-80
2023/03/05 04:20:30;;;;;;;83.40;52.03;;;;;;;;;;4406633;32;318998;-81
2023/03/05 04:22:57;;;;;;;78.27;52.10;;;;;;;;;;4417620;32;319480;-81
2023/03/05 04:25:25;;;;;;;78.60;51.27;;;;;;;;;;4402351;32;354071;-81
2023/03/05 04:27:52;;;;;;;76.77;52.00;;;;;;;;;;4416422;32;319126;-83
2023/03/05 04:30:20;;;;;;;79.43;51.53;;;;;;;;;;4417331;32;318733;-81
2023/03/05 04:32:47;;;;;;;78.67;51.63;;;;;;;;;;4403469;32;349657;-81
2023/03/05 04:35:14;;;;;;;69.90;50.37;;;;;;;;;;4416750;32;318926;-81
2023/03/05 04:37:43;;;;;;;73.13;52.50;;;;;;;;;;4404325;32;333829;-81
2023/03/05 04:40:12;;;;;;;76.57;50.90;;;;;;;;;;4417073;32;318996;-81
2023/03/05 04:42:39;;;;;;;68.23;50.00;;;;;;;;;;4406763;32;318860;-83
2023/03/05 04:45:08;;;;;;;79.70;52.40;;;;;;;;;;4417302;32;318806;-81
2023/03/05 04:47:35;;;;;;;84.40;52.87;;;;;;;;;;4405591;32;318845;-81
2023/03/05 04:50:03;;;;;;;79.90;52.10;;;;;;;;;;4416954;32;318980;-81
2023/03/05 04:52:31;;;;;;;75.80;51.30;;;;;;;;;;4405154;32;319457;-80
2023/03/05 04:55:00;;;;;;;97.37;72.93;;;;;;;;;;4415673;32;318847;-83
2023/03/05 04:57:27;;;;;;;114.47;82.97;;;;;;;;;;4406919;32;319129;-81
2023/03/05 04:59:55;;;;;;;65.10;48.67;;;;;;;;;;4416535;32;319917;-82
2023/03/05 05:02:22;;;;;;;72.77;49.67;;;;;;;;;;4415696;32;319014;-82
2023/03/05 05:04:52;;;;;;;70.43;45.23;;;;;;;;;;4403869;32;418325;-82
2023/03/05 05:07:20;;;;;;;60.03;41.90;;;;;;;;;;4416667;32;318958;-81
2023/03/05 05:09:47;;;;;;;64.17;43.43;;;;;;;;;;4404587;32;319137;-81
2023/03/05 05:12:16;;;;;;;65.40;43.53;;;;;;;;;;4416715;32;318923;-81
2023/03/05 05:14:43;;;;;;;82.77;53.33;;;;;;;;;;4406637;32;319054;-81
2023/03/05 05:17:11;;;;;;;101.33;62.27;;;;;;;;;;4415430;32;339323;-81
2023/03/05 05:19:39;;;;;;;102.00;62.93;;;;;;;;;;4406532;32;320058;-83
2023/03/05 05:22:06;;;;;;;99.00;61.83;;;;;;;;;;4415438;32;319790;-83
2023/03/05 05:24:33;;;;;;;86.60;61.23;;;;;;;;;;4405847;32;319351;-81
2023/03/05 05:27:02;;;;;;;88.63;57.80;;;;;;;;;;4414262;32;318798;-82
2023/03/05 05:29:31;;;;;;;68.67;48.07;;;;;;;;;;4408223;32;318539;-82
2023/03/05 05:31:59;;;;;;;66.47;46.10;;;;;;;;;;4449949;26;317532;-81
2023/03/05 05:36:56;;;;;;;73.03;48.33;;;;;;;;;;4350887;32;319260;-91
2023/03/05 05:39:23;;;;;;;74.07;50.93;;;;;;;;;;4348533;32;337456;-89
2023/03/05 05:41:51;;;;;;;76.20;50.43;;;;;;;;;;4359273;32;318726;-91
2023/03/05 05:44:17;;;;;;;87.53;57.57;;;;;;;;;;4358317;32;319237;-91
2023/03/05 05:46:46;;;;;;;82.10;52.83;;;;;;;;;;4349202;32;319297;-91
2023/03/05 05:49:12;;;;;;;71.40;49.83;;;;;;;;;;4358606;32;318748;-92
2023/03/05 05:51:39;;;;;;;80.87;53.27;;;;;;;;;;4339543;32;318835;-92
2023/03/05 05:54:06;;;;;;;86.50;56.47;;;;;;;;;;4349384;32;318380;-92
2023/03/05 05:56:33;;;;;;;80.30;54.30;;;;;;;;;;4350428;32;319414;-90
2023/03/05 05:58:59;;;;;;;84.57;56.83;;;;;;;;;;4360513;32;318639;-91
2023/03/05 06:01:28;;;;;;;80.90;51.87;;;;;;;;;;4350331;32;379224;-88
2023/03/05 06:03:57;;;;;;;74.03;52.00;;;;;;;;;;4359032;32;319497;-90
2023/03/05 06:06:25;;;;;;;75.17;49.67;;;;;;;;;;4352233;32;319438;-89
2023/03/05 06:08:52;;;;;;;70.77;49.57;;;;;;;;;;4367815;32;319420;-90
2023/03/05 06:11:19;;;;;;;64.47;43.67;;;;;;;;;;4370129;32;318153;-90
2023/03/05 06:13:46;;;;;;;72.83;46.03;;;;;;;;;;4362267;32;317825;-92
2023/03/05 06:16:16;;;;;;;65.20;47.60;;;;;;;;;;4371080;32;317370;-91
2023/03/05 06:18:42;;;;;;;73.07;46.53;;;;;;;;;;4360332;32;349940;-90
2023/03/05 06:21:12;;;;;;;82.03;52.17;;;;;;;;;;4369356;32;354057;-92
2023/03/05 06:23:40;;;;;;;80.43;55.47;;;;;;;;;;4343199;32;319306;-91
2023/03/05 06:26:08;;;;;;;68.17;50.07;;;;;;;;;;4358975;32;319547;-91
2023/03/05 06:28:35;;;;;;;78.27;54.30;;;;;;;;;;4351519;32;319286;-89
2023/03/05 06:31:03;;;;;;;76.10;55.83;;;;;;;;;;4362852;32;354804;-91
2023/03/05 06:33:30;;;;;;;99.20;65.37;;;;;;;;;;4358967;32;318296;-90
2023/03/05 06:35:56;;;;;;;85.10;61.33;;;;;;;;;;4367329;32;319092;-88
2023/03/05 06:38:25;;;;;;;98.77;64.13;;;;;;;;;;4359532;32;379658;-87
2023/03/05 06:40:52;;;;;;;91.17;64.33;;;;;;;;;;4368301;32;318032;-92
2023/03/05 06:43:19;;;;;;;101.97;69.20;;;;;;;;;;4361174;32;318219;-90
2023/03/05 06:45:46;;;;;;;108.63;73.43;;;;;;;;;;4362058;32;320153;-88
2023/03/05 06:48:13;;;;;;;82.43;58.17;;;;;;;;;;4373870;32;319343;-89
2023/03/05 06:50:39;;;;;;;89.53;60.10;;;;;;;;;;4363169;32;317290;-89
2023/03/05 06:53:06;;;;;;;86.47;60.53;;;;;;;;;;4373335;32;319084;-90
2023/03/05 06:55:38;;;;;;;87.03;57.30;;;;;;;;;;4362457;32;319214;-89
2023/03/05 06:58:06;;;;;;;80.43;50.77;;;;;;;;;;4368950;32;319122;-90
2023/03/05 07:00:33;;;;;;;73.77;50.03;;;;;;;;;;4359988;32;341867;-89
2023/03/05 07:03:00;;;;;;;64.77;48.33;;;;;;;;;;4370985;32;319244;-87
2023/03/05 07:05:27;;;;;;;75.20;48.47;;;;;;;;;;4360227;32;319431;-90
2023/03/05 07:07:54;;;;;;;67.53;46.87;;;;;;;;;;4370740;32;318603;-89
2023/03/05 07:10:20;;;;;;;66.70;43.83;;;;;;;;;;4369650;32;319196;-89
2023/03/05 07:12:49;;;;;;;69.07;41.97;;;;;;;;;;4359645;32;319552;-89
2023/03/05 07:15:15;;;;;;;61.17;37.20;;;;;;;;;;4365655;32;349374;-87
2023/03/05 07:17:42;;;;;;;51.33;36.70;;;;;;;;;;4359172;32;318327;-89
2023/03/05 07:20:10;;;;;;;56.77;39.30;;;;;;;;;;4368351;32;319220;-90
2023/03/05 07:22:37;;;;;;;57.83;36.87;;;;;;;;;;4361279;32;318571;-89
2023/03/05 07:25:05;;;;;;;56.03;38.03;;;;;;;;;;4366390;32;319278;-90
2023/03/05 07:27:35;;;;;;;82.07;49.53;;;;;;;;;;4357701;32;319100;-88
2023/03/05 07:30:04;;;;;;;73.60;49.80;;;;;;;;;;4365824;32;318169;-90
2023/03/05 07:32:32;;;;;;;74.37;52.17;;;;;;;;;;4358344;32;319309;-89
2023/03/05 07:34:59;;;;;;;81.77;53.40;;;;;;;;;;4366048;32;319259;-88
2023/03/05 07:37:25;;;;;;;69.40;47.63;;;;;;;;;;4353016;32;373637;-91
2023/03/05 07:39:52;;;;;;;58.30;41.60;;;;;;;;;;4361990;32;318516;-90
2023/03/05 07:42:19;;;;;;;50.97;35.03;;;;;;;;;;4362409;32;319736;-91
2023/03/05 07:44:46;;;;;;;71.57;50.33;;;;;;;;;;4353193;32;319064;-89
2023/03/05 07:47:14;;;;;;;63.30;39.13;;;;;;;;;;4360674;32;320104;-89
2023/03/05 07:49:41;;;;;;;51.17;35.23;;;;;;;;;;4350427;32;318584;-89
2023/03/05 07:52:09;;;;;;;47.93;31.90;;;;;;;;;;4359418;32;318461;-88
2023/03/05 07:54:38;;;;;;;48.97;29.60;;;;;;;;;;4349320;32;319569;-90
2023/03/05 07:57:05;;;;;;;42.57;31.63;;;;;;;;;;4359604;32;318677;-87
2023/03/05 07:59:32;;;;;;;43.03;25.50;;;;;;;;;;4349275;32;319425;-86
2023/03/05 08:01:59;;;;;;;36.47;25.87;;;;;;;;;;4359599;32;319353;-90
2023/03/05 08:04:30;;;;;;;196.47;120.73;;;;;;;;;;4350190;32;319370;-88
2023/03/05 08:06:57;;;;;;;544.33;379.27;;;;;;;;;;4360385;32;321677;-90
2023/03/05 08:09:24;;;;;;;176.07;120.20;;;;;;;;;;4348960;32;321503;-90
2023/03/05 08:11:50;;;;;;;65.30;43.93;;;;;;;;;;4358659;32;320685;-89
2023/03/05 08:14:18;;;;;;;53.93;42.47;;;;;;;;;;4359684;32;318494;-90
2023/03/05 08:16:45;;;;;;;50.07;30.43;;;;;;;;;;4349146;32;338647;-90
2023/03/05 08:19:12;;;;;;;49.93;30.47;;;;;;;;;;4358962;32;319423;-92
2023/03/05 08:21:40;;;;;;;52.77;34.87;;;;;;;;;;4350052;32;319370;-89
2023/03/05 08:24:08;;;;;;;44.80;29.17;;;;;;;;;;4360362;32;319364;-92
2023/03/05 08:26:37;;;;;;;42.93;27.93;;;;;;;;;;4350048;32;319653;-91
2023/03/05 08:29:04;;;;;;;44.00;32.90;;;;;;;;;;4360269;32;318289;-91
2023/03/05 08:31:32;;;;;;;40.53;28.30;;;;;;;;;;4350403;32;319386;-89
2023/03/05 08:34:00;;;;;;;39.50;25.13;;;;;;;;;;4359312;32;318546;-89
2023/03/05 08:36:28;;;;;;;34.13;25.50;;;;;;;;;;4349863;32;319483;-91
2023/03/05 08:38:57;;;;;;;40.53;25.83;;;;;;;;;;4358586;32;326210;-90
2023/03/05 08:41:24;;;;;;;35.20;22.90;;;;;;;;;;4350655;32;319511;-90
2023/03/05 08:43:51;;;;;;;39.37;25.30;;;;;;;;;;4360296;32;319132;-91
2023/03/05 08:46:21;;;;;;;41.57;27.17;;;;;;;;;;4359475;32;318802;-91
2023/03/05 08:48:48;;;;;;;39.53;25.77;;;;;;;;;;4331168;32;418620;-89
2023/03/05 08:51:16;;;;;;;36.87;23.90;;;;;;;;;;4355632;32;340414;-90
2023/03/05 08:53:44;;;;;;;40.93;25.80;;;;;;;;;;4350542;32;318516;-89
2023/03/05 08:56:14;;;;;;;43.47;27.80;;;;;;;;;;4359657;32;318660;-91
2023/03/05 08:58:41;;;;;;;41.17;28.40;;;;;;;;;;4348768;32;319496;-90
2023/03/05 09:01:07;;;;;;;39.67;26.30;;;;;;;;;;4359692;32;319306;-89
2023/03/05 09:03:34;;;;;;;44.30;25.00;;;;;;;;;;4349947;32;319252;-90
2023/03/05 09:06:02;;;;;;;43.40;28.70;;;;;;;;;;4360022;32;319519;-91
2023/03/05 09:08:29;;;;;;;48.10;28.60;;;;;;;;;;4348351;32;319331;-91
2023/03/05 09:10:56;;;;;;;34.80;25.33;;;;;;;;;;4359013;32;353240;-90
2023/03/05 09:13:25;;;;;;;38.17;26.93;;;;;;;;;;4348550;32;319650;-89
2023/03/05 09:15:59;;;;;;;37.47;24.43;;;;;;;;;;4358620;32;319001;-90
2023/03/05 09:18:26;;;;;;;39.10;26.27;;;;;;;;;;4348379;32;318978;-90
2023/03/05 09:20:54;;;;;;;36.10;23.17;;;;;;;;;;4359634;32;319144;-90
2023/03/05 09:23:21;;;;;;;41.97;23.43;;;;;;;;;;4359135;32;319420;-90
2023/03/05 09:25:49;;;;;;;32.10;23.23;;;;;;;;;;4340267;32;418234;-90
2023/03/05 09:28:16;;;;;;;33.77;22.20;;;;;;;;;;4359582;32;319177;-90
2023/03/05 09:30:44;;;;;;;41.10;23.63;;;;;;;;;;4349851;32;318536;-91
2023/03/05 09:33:11;;;;;;;47.20;24.93;;;;;;;;;;4358997;32;319724;-91
2023/03/05 09:35:38;;;;;;;44.30;26.17;;;;;;;;;;4348470;32;319354;-90
2023/03/05 09:38:05;;;;;;;41.97;26.30;;;;;;;;;;4357633;32;319517;-90
2023/03/05 09:40:45;;;;;;;46.63;27.03;;;;;;;;;;4347226;32;327395;-90
2023/03/05 09:43:23;;;;;;;41.07;24.47;;;;;;;;;;4358559;32;319332;-90
2023/03/05 09:46:05;;;;;;;44.30;25.17;;;;;;;;;;4344070;32;418548;-89
2023/03/05 09:48:46;;;;;;;40.77;23.93;;;;;;;;;;4348011;32;319333;-90
2023/03/05 09:51:19;;;;;;;106.50;42.77;;;;;;;;;;4358675;32;319429;-90
2023/03/05 09:53:50;;;;;;;65.60;32.30;;;;;;;;;;4347103;32;320358;-90
2023/03/05 09:56:20;;;;;;;65.93;30.00;;;;;;;;;;4358584;32;319409;-90
2023/03/05 09:58:50;;;;;;;135.50;50.67;;;;;;;;;;4349254;32;319081;-91
2023/03/05 10:01:22;;;;;;;33.40;22.83;;;;;;;;;;4358726;32;320399;-90
2023/03/05 10:03:56;;;;;;;56.10;27.17;;;;;;;;;;4332853;33;418283;-89
2023/03/05 10:06:25;;;;;;;56.37;28.23;;;;;;;;;;4335632;33;319187;-86
2023/03/05 10:08:56;;;;;;;57.03;35.07;;;;;;;;;;4342138;33;318578;-90
2023/03/05 10:11:36;;;;;;;51.40;29.70;;;;;;;;;;4343733;33;318467;-92
2023/03/05 10:14:04;;;;;;;54.63;33.93;;;;;;;;;;4330859;33;417015;-93
2023/03/05 10:17:05;;;;;;;44.67;29.60;;;;;;;;;;4332473;33;318751;-92
2023/03/05 10:20:03;;;;;;;53.10;31.30;;;;;;;;;;4335272;32;319314;-91
2023/03/05 10:22:33;;;;;;;46.23;28.03;;;;;;;;;;4337333;32;319503;-90
2023/03/05 10:25:13;;;;;;;44.93;23.97;;;;;;;;;;4346637;32;319242;-89
2023/03/05 10:27:48;;;;;;;33.90;23.23;;;;;;;;;;4336539;32;319452;-90
2023/03/05 10:30:34;;;;;;;36.57;24.27;;;;;;;;;;4344573;32;318649;-89
2023/03/05 10:33:15;;;;;;;34.13;24.97;;;;;;;;;;4333064;32;419526;-89
2023/03/05 10:35:58;;;;;;;37.40;26.27;;;;;;;;;;4334109;32;339386;-88
2023/03/05 10:38:46;;;;;;;41.80;24.33;;;;;;;;;;4335662;32;319033;-87
2023/03/05 10:41:21;;;;;;;41.27;27.63;;;;;;;;;;4345614;32;319388;-89
2023/03/05 10:43:55;;;;;;;41.53;26.07;;;;;;;;;;4341982;32;419346;-88
2023/03/05 10:46:31;;;;;;;52.30;28.83;;;;;;;;;;4360437;32;319244;-88
2023/03/05 10:49:02;;;;;;;41.03;28.57;;;;;;;;;;4348363;32;419086;-89
2023/03/05 10:51:34;;;;;;;40.00;28.03;;;;;;;;;;4349762;32;319172;-90
2023/03/05 10:54:10;;;;;;;42.67;28.57;;;;;;;;;;4360010;32;319316;-88
2023/03/05 10:56:37;;;;;;;55.13;32.27;;;;;;;;;;4349434;32;319364;-90
2023/03/05 10:59:04;;;;;;;41.03;28.37;;;;;;;;;;4360459;32;318561;-89
2023/03/05 11:01:31;;;;;;;51.63;30.60;;;;;;;;;;4350643;32;319726;-89
2023/03/05 11:04:02;;;;;;;59.73;36.63;;;;;;;;;;4360581;32;319130;-89
2023/03/05 11:06:35;;;;;;;62.70;36.87;;;;;;;;;;4349571;32;319561;-89
2023/03/05 11:09:21;;;;;;;74.63;39.07;;;;;;;;;;4359452;32;318677;-89
2023/03/05 11:12:10;;;;;;;59.60;32.80;;;;;;;;;;4349993;32;340274;-89
2023/03/05 11:14:39;;;;;;;46.50;32.07;;;;;;;;;;4350883;32;319632;-88
2023/03/05 11:17:28;;;;;;;59.47;36.57;;;;;;;;;;4361382;32;319166;-87
2023/03/05 11:19:57;;;;;;;120.80;60.77;;;;;;;;;;4346098;32;419461;-87
2023/03/05 11:22:25;;;;;;;68.10;39.43;;;;;;;;;;4348010;32;320528;-84
2023/03/05 11:25:20;;;;;;;113.33;58.97;;;;;;;;;;4358055;32;353111;-88
2023/03/05 11:27:50;;;;;;;50.53;28.40;;;;;;;;;;4349589;32;320339;-90
2023/03/05 11:30:26;;;;;;;250.97;91.80;;;;;;;;;;4359077;32;319302;-90
2023/03/05 11:33:08;;;;;;;97.60;50.37;;;;;;;;;;4348107;32;421365;-94
2023/03/05 11:35:38;;;;;;;36.40;26.93;;;;;;;;;;4349667;32;319276;-87
2023/03/05 11:38:14;;;;;;;38.67;25.80;;;;;;;;;;4358423;32;319175;-87
2023/03/05 11:40:41;;;;;;;59.37;42.83;;;;;;;;;;4349781;32;319122;-88
2023/03/05 11:43:13;;;;;;;40.13;28.40;;;;;;;;;;4359230;32;318785;-87
2023/03/05 11:45:40;;;;;;;42.73;26.37;;;;;;;;;;4348589;32;319699;-88
2023/03/05 11:48:12;;;;;;;43.07;27.37;;;;;;;;;;4359217;32;318808;-87
2023/03/05 11:50:43;;;;;;;40.93;28.37;;;;;;;;;;4349528;32;318703;-88
2023/03/05 11:53:14;;;;;;;52.67;30.33;;;;;;;;;;4358082;32;319378;-87
2023/03/05 11:55:44;;;;;;;37.37;27.60;;;;;;;;;;4348476;32;319692;-88
2023/03/05 11:58:23;;;;;;;46.63;28.33;;;;;;;;;;4362107;32;318465;-86
2023/03/05 12:00:50;;;;;;;37.07;24.77;;;;;;;;;;4348936;32;418194;-87
2023/03/05 12:03:20;;;;;;;43.03;26.40;;;;;;;;;;4361682;32;319242;-87
2023/03/05 12:05:52;;;;;;;43.50;25.03;;;;;;;;;;4352203;32;319267;-88
2023/03/05 12:08:26;;;;;;;40.87;24.10;;;;;;;;;;4361899;32;319603;-87
2023/03/05 12:10:53;;;;;;;39.13;23.57;;;;;;;;;;4346837;32;419028;-87
2023/03/05 12:13:28;;;;;;;39.17;22.97;;;;;;;;;;4358022;32;319153;-89
2023/03/05 12:16:08;;;;;;;34.80;22.13;;;;;;;;;;4346585;32;418575;-89
2023/03/05 12:18:47;;;;;;;42.60;22.77;;;;;;;;;;4349596;32;319811;-88
2023/03/05 12:21:24;;;;;;;34.93;22.80;;;;;;;;;;4359129;32;318510;-88
2023/03/05 12:23:57;;;;;;;35.80;23.57;;;;;;;;;;4347720;32;420223;-87
2023/03/05 12:26:54;;;;;;;32.67;23.50;;;;;;;;;;4350522;32;319301;-88
2023/03/05 12:29:30;;;;;;;43.50;26.20;;;;;;;;;;4358727;32;319164;-87
2023/03/05 12:31:58;;;;;;;43.30;25.97;;;;;;;;;;4346277;32;419334;-87
2023/03/05 12:34:47;;;;;;;37.07;23.30;;;;;;;;;;4345967;32;402727;-88
2023/03/05 12:37:53;;;;;;;34.33;21.63;;;;;;;;;;4359056;32;319525;-86
2023/03/05 12:40:22;;;;;;;31.80;20.57;;;;;;;;;;4354978;32;419337;-88
2023/03/05 12:42:53;;;;;;;31.67;20.63;;;;;;;;;;4345004;32;419750;-88
2023/03/05 12:45:32;;;;;;;31.10;22.30;;;;;;;;;;4357317;32;318737;-86
2023/03/05 12:48:35;;;;;;;33.83;22.83;;;;;;;;;;4345845;32;419409;-86
2023/03/05 12:51:02;;;;;;;35.70;23.17;;;;;;;;;;4331548;32;419553;-86
2023/03/05 12:53:31;;;;;;;39.03;22.97;;;;;;;;;;4333392;32;319361;-87
2023/03/05 12:56:02;;;;;;;33.57;21.50;;;;;;;;;;4343752;32;319934;-86
2023/03/05 12:58:37;;;;;;;32.97;22.47;;;;;;;;;;4332593;32;318966;-86
2023/03/05 13:01:12;;;;;;;34.27;22.30;;;;;;;;;;4342362;32;319401;-86
2023/03/05 13:03:45;;;;;;;30.73;21.13;;;;;;;;;;4333595;32;319441;-87
2023/03/05 13:06:24;;;;;;;29.87;21.70;;;;;;;;;;4343366;32;319164;-86
2023/03/05 13:08:57;;;;;;;38.07;23.93;;;;;;;;;;4330120;32;419168;-87
2023/03/05 13:11:25;;;;;;;30.57;20.07;;;;;;;;;;4325628;32;319447;-87
2023/03/05 13:13:53;;;;;;;40.87;20.13;;;;;;;;;;4342696;32;319391;-86
2023/03/05 13:16:23;;;;;;;31.00;19.27;;;;;;;;;;4343112;32;319508;-86
2023/03/05 13:18:52;;;;;;;30.43;21.10;;;;;;;;;;4330546;32;418593;-87
2023/03/05 13:21:24;;;;;;;30.30;19.67;;;;;;;;;;4343184;32;319508;-87
2023/03/05 13:23:57;;;;;;;37.73;23.60;;;;;;;;;;4331114;32;418503;-88
2023/03/05 13:26:26;;;;;;;43.23;26.47;;;;;;;;;;4332467;32;319172;-88
2023/03/05 13:29:15;;;;;;;41.13;28.23;;;;;;;;;;4341961;32;319594;-87
2023/03/05 13:31:43;;;;;;;43.33;31.73;;;;;;;;;;4332322;32;323298;-87
2023/03/05 13:34:17;;;;;;;46.03;27.70;;;;;;;;;;4342191;32;318784;-88
2023/03/05 13:36:52;;;;;;;34.90;23.90;;;;;;;;;;4332134;32;319323;-86
2023/03/05 13:39:25;;;;;;;36.23;24.90;;;;;;;;;;4343219;32;319324;-87
2023/03/05 13:42:01;;;;;;;39.83;24.03;;;;;;;;;;4330556;32;418688;-87
2023/03/05 13:44:28;;;;;;;33.40;22.27;;;;;;;;;;4332934;32;319042;-87
2023/03/05 13:47:08;;;;;;;32.47;20.93;;;;;;;;;;4342345;32;319313;-87
2023/03/05 13:49:35;;;;;;;39.90;25.90;;;;;;;;;;4332953;32;319269;-87
2023/03/05 13:52:01;;;;;;;43.80;26.60;;;;;;;;;;4343251;32;319462;-87
2023/03/05 13:54:30;;;;;;;37.43;27.17;;;;;;;;;;4334297;32;318617;-87
2023/03/05 13:56:59;;;;;;;38.70;26.03;;;;;;;;;;4344979;32;319405;-87
2023/03/05 13:59:28;;;;;;;38.43;25.10;;;;;;;;;;4336192;32;319601;-87
2023/03/05 14:01:56;;;;;;;40.77;29.23;;;;;;;;;;4345469;32;319325;-87
2023/03/05 14:04:25;;;;;;;41.73;30.60;;;;;;;;;;4338650;32;319230;-87
2023/03/05 14:06:57;;;;;;;37.03;25.00;;;;;;;;;;4345940;32;319490;-87
2023/03/05 14:09:26;;;;;;;40.97;28.10;;;;;;;;;;4336033;32;319438;-87
2023/03/05 14:12:00;;;;;;;40.97;29.47;;;;;;;;;;4345835;32;319867;-86
2023/03/05 14:14:28;;;;;;;43.43;28.97;;;;;;;;;;4333473;32;319401;-86
2023/03/05 14:16:55;;;;;;;39.97;27.97;;;;;;;;;;4344532;32;319349;-87
2023/03/05 14:19:33;;;;;;;43.00;28.80;;;;;;;;;;4344551;32;319462;-87
2023/03/05 14:22:01;;;;;;;39.90;25.17;;;;;;;;;;4335564;32;418644;-86
2023/03/05 14:24:30;;;;;;;38.27;24.43;;;;;;;;;;4350266;32;319300;-86